Time;durP1;ratioP1;P1;durP2;ratioP2;P2;SDS_P1;SDS_P2;PMS_P1;PMS_P2;Temp;Humidity;BMP_temperature;BMP_pressure;BME280_temperature;BME280_humidity;BME280_pressure;Samples;Min_cycle;Max_cycle;Signal;HPM_P1;HPM_P2
2021/06/02 00:00:39;;;;;;;3.22;2.95;;;22.10;41.70;;;;;;1480414;40;20040;-60
2021/06/02 00:02:01;;;;;;;3.40;3.10;;;22.10;41.60;;;;;;1479346;40;20029;-60
2021/06/02 00:03:31;;;;;;;3.33;3.03;;;22.00;41.70;;;;;;1481416;40;20033;-60
2021/06/02 00:04:54;;;;;;;2.65;2.45;;;22.00;41.90;;;;;;1477994;40;20048;-60
2021/06/02 00:06:15;;;;;;;2.80;2.58;;;22.00;41.70;;;;;;1480595;40;20033;-60
2021/06/02 00:07:39;;;;;;;3.92;3.08;;;22.00;41.70;;;;;;1481496;40;20028;-60
2021/06/02 00:09:01;;;;;;;3.03;2.72;;;21.90;42.00;;;;;;1480452;40;20073;-60
2021/06/02 00:10:22;;;;;;;4.03;3.20;;;21.90;41.90;;;;;;1481345;40;20130;-60
2021/06/02 00:11:43;;;;;;;3.67;3.17;;;21.90;41.80;;;;;;1479885;40;20037;-60
2021/06/02 00:13:05;;;;;;;3.08;2.78;;;21.80;42.00;;;;;;1481431;40;20061;-61
2021/06/02 00:14:27;;;;;;;3.28;3.00;;;21.80;41.90;;;;;;1478543;40;20056;-61
2021/06/02 00:15:48;;;;;;;3.72;2.55;;;21.80;41.90;;;;;;1482276;40;20134;-61
2021/06/02 00:17:10;;;;;;;4.60;2.95;;;21.80;41.80;;;;;;1479191;40;20021;-61
2021/06/02 00:18:31;;;;;;;3.70;2.78;;;21.70;41.70;;;;;;1481338;40;20263;-61
2021/06/02 00:19:52;;;;;;;2.58;2.38;;;21.70;41.70;;;;;;1475825;40;20037;-61
2021/06/02 00:21:13;;;;;;;4.63;3.08;;;21.70;41.80;;;;;;1479910;40;20040;-60
2021/06/02 00:22:34;;;;;;;3.17;2.75;;;21.60;42.00;;;;;;1471796;40;20042;-61
2021/06/02 00:23:55;;;;;;;3.42;3.13;;;21.60;42.00;;;;;;1476216;40;20040;-61
2021/06/02 00:25:16;;;;;;;3.38;2.92;;;21.60;42.00;;;;;;1480625;40;20028;-61
2021/06/02 00:26:38;;;;;;;3.63;2.80;;;21.60;42.00;;;;;;1481343;40;20358;-60
2021/06/02 00:27:59;;;;;;;3.58;3.00;;;21.50;42.00;;;;;;1483243;40;20051;-60
2021/06/02 00:29:24;;;;;;;3.10;2.80;;;21.50;42.10;;;;;;1481364;40;20029;-61
2021/06/02 00:30:45;;;;;;;3.20;2.90;;;21.50;42.10;;;;;;1478848;40;20064;-61
2021/06/02 00:32:08;;;;;;;4.22;2.92;;;21.50;42.20;;;;;;1481228;40;20016;-60
2021/06/02 00:33:31;;;;;;;3.30;2.85;;;21.40;42.30;;;;;;1479970;40;20032;-60
2021/06/02 00:34:52;;;;;;;4.03;2.72;;;21.40;42.50;;;;;;1475855;40;20041;-60
2021/06/02 00:36:13;;;;;;;3.60;3.22;;;21.40;42.70;;;;;;1476585;40;20152;-61
2021/06/02 00:37:35;;;;;;;3.13;2.88;;;21.30;42.70;;;;;;1480731;40;20068;-62
2021/06/02 00:38:56;;;;;;;3.20;2.80;;;21.30;43.00;;;;;;1479859;40;20056;-60
2021/06/02 00:40:30;;;;;;;3.10;2.80;;;21.30;43.20;;;;;;1479960;40;20033;-61
2021/06/02 00:41:52;;;;;;;5.45;2.75;;;21.30;43.60;;;;;;1476662;40;20025;-60
2021/06/02 00:43:15;;;;;;;3.85;3.10;;;21.30;43.20;;;;;;1480939;40;20032;-60
2021/06/02 00:44:37;;;;;;;3.97;2.78;;;21.30;43.20;;;;;;1476126;40;20021;-60
2021/06/02 00:45:59;;;;;;;3.38;3.08;;;21.30;43.30;;;;;;1480786;40;20041;-60
2021/06/02 00:47:20;;;;;;;4.05;2.95;;;21.20;43.20;;;;;;1481295;40;20067;-61
2021/06/02 00:48:42;;;;;;;3.50;3.20;;;21.20;43.20;;;;;;1480987;40;20044;-60
2021/06/02 00:50:05;;;;;;;3.03;2.70;;;21.20;43.30;;;;;;1480383;40;20573;-60
2021/06/02 00:51:27;;;;;;;2.75;2.55;;;21.10;43.40;;;;;;1480973;40;20017;-61
2021/06/02 00:52:49;;;;;;;4.22;3.40;;;21.10;43.50;;;;;;1482899;40;20519;-60
2021/06/02 00:54:10;;;;;;;3.80;3.40;;;21.10;43.60;;;;;;1481055;40;20033;-60
2021/06/02 00:55:31;;;;;;;3.35;3.03;;;21.10;43.50;;;;;;1480529;40;20048;-60
2021/06/02 00:57:11;;;;;;;3.70;3.40;;;21.10;43.50;;;;;;1481749;40;20033;-61
2021/06/02 00:58:41;;;;;;;4.35;3.25;;;21.10;43.90;;;;;;1481505;40;20281;-61
2021/06/02 01:00:07;;;;;;;;;;;21.00;44.00;;;;;;1480635;40;20642;-61
2021/06/02 01:01:35;;;;;;;5.22;3.10;;;21.10;43.70;;;;;;1481972;40;19959;-61
2021/06/02 01:02:57;;;;;;;3.47;3.17;;;21.00;43.60;;;;;;1481462;40;20380;-60
2021/06/02 01:04:24;;;;;;;3.15;2.85;;;21.00;43.50;;;;;;1482046;40;20120;-60
2021/06/02 01:05:45;;;;;;;3.40;3.10;;;21.00;43.80;;;;;;1480641;40;20403;-61
2021/06/02 01:07:09;;;;;;;6.20;3.63;;;20.90;43.60;;;;;;1477871;40;20278;-60
2021/06/02 01:08:31;;;;;;;3.42;3.13;;;20.90;44.10;;;;;;1479310;40;20041;-61
2021/06/02 01:09:56;;;;;;;3.63;3.33;;;20.90;44.20;;;;;;1480863;40;20029;-60
2021/06/02 01:11:17;;;;;;;3.50;3.20;;;20.80;44.20;;;;;;1480672;40;20130;-60
2021/06/02 01:12:41;;;;;;;3.97;3.42;;;20.90;44.30;;;;;;1479812;40;20044;-60
2021/06/02 01:14:03;;;;;;;4.60;3.58;;;20.80;44.50;;;;;;1476439;40;20477;-60
2021/06/02 01:15:26;;;;;;;3.38;3.08;;;20.80;44.40;;;;;;1481368;40;20048;-60
2021/06/02 01:16:47;;;;;;;4.63;3.13;;;20.80;44.40;;;;;;1481719;40;20703;-61
2021/06/02 01:18:09;;;;;;;3.70;3.00;;;20.80;44.60;;;;;;1481056;40;20364;-60
2021/06/02 01:19:31;;;;;;;4.05;3.63;;;20.70;44.70;;;;;;1481170;40;20082;-61
2021/06/02 01:20:54;;;;;;;4.30;3.53;;;20.70;44.70;;;;;;1482419;40;20024;-60
2021/06/02 01:22:15;;;;;;;3.60;3.20;;;20.70;44.70;;;;;;1481445;40;20085;-61
2021/06/02 01:23:36;;;;;;;5.38;3.60;;;20.70;44.70;;;;;;1477307;40;20038;-60
2021/06/02 01:25:02;;;;;;;3.67;3.38;;;20.70;44.90;;;;;;1480582;40;20040;-60
2021/06/02 01:26:24;;;;;;;4.00;3.50;;;20.70;45.10;;;;;;1480477;40;20036;-60
2021/06/02 01:27:46;;;;;;;5.90;3.30;;;20.70;45.10;;;;;;1478654;40;20040;-60
2021/06/02 01:29:07;;;;;;;3.83;3.13;;;20.70;45.10;;;;;;1481342;40;20033;-60
2021/06/02 01:30:30;;;;;;;4.57;3.45;;;20.60;45.10;;;;;;1480623;40;20106;-61
2021/06/02 01:32:28;;;;;;;3.67;3.35;;;20.60;45.30;;;;;;1481995;40;20361;-61
2021/06/02 01:34:27;;;;;;;3.78;3.38;;;20.60;46.30;;;;;;1470076;40;20083;-60
2021/06/02 01:36:04;;;;;;;4.13;3.25;;;20.60;45.70;;;;;;1480991;40;20376;-61
2021/06/02 01:38:02;;;;;;;5.40;3.53;;;20.60;45.40;;;;;;1481607;40;20025;-60
2021/06/02 01:39:33;;;;;;;5.90;3.50;;;20.60;45.50;;;;;;1481209;40;20044;-61
2021/06/02 01:41:03;;;;;;;3.63;3.20;;;20.60;45.40;;;;;;1481330;40;20021;-60
2021/06/02 01:42:43;;;;;;;;;;;20.60;45.60;;;;;;1480785;40;20033;-61
2021/06/02 01:44:10;;;;;;;;;;;20.60;45.00;;;;;;1480679;40;19928;-60
2021/06/02 01:46:02;;;;;;;3.38;3.00;;;20.60;44.60;;;;;;1480484;40;19936;-60
2021/06/02 01:47:44;;;;;;;3.70;3.40;;;20.60;45.10;;;;;;1480900;40;20142;-60
2021/06/02 01:49:42;;;;;;;3.33;3.03;;;20.60;44.90;;;;;;1478860;40;20077;-60
2021/06/02 01:51:21;;;;;;;4.22;2.97;;;20.50;45.60;;;;;;1481967;40;20036;-60
2021/06/02 01:52:57;;;;;;;3.33;3.03;;;20.50;45.30;;;;;;1480924;40;20032;-60
2021/06/02 01:54:46;;;;;;;3.60;3.30;;;20.50;45.50;;;;;;1480785;40;20036;-60
2021/06/02 01:56:49;;;;;;;3.88;3.30;;;20.50;45.70;;;;;;1481706;40;20049;-61
2021/06/02 01:58:48;;;;;;;4.50;3.10;;;20.40;45.70;;;;;;1478288;40;20033;-60
2021/06/02 02:00:29;;;;;;;4.22;3.33;;;20.40;45.70;;;;;;1482180;40;20046;-60
2021/06/02 02:01:59;;;;;;;3.72;3.42;;;20.50;45.30;;;;;;1481844;40;20041;-61
2021/06/02 02:03:22;;;;;;;;;;;20.40;45.70;;;;;;1483396;40;20033;-61
2021/06/02 02:05:04;;;;;;;4.53;3.45;;;20.40;45.00;;;;;;1479840;40;19936;-60
2021/06/02 02:06:32;;;;;;;4.13;3.30;;;20.40;45.30;;;;;;1480250;40;20033;-60
2021/06/02 02:08:15;;;;;;;4.38;3.65;;;20.30;45.70;;;;;;1481066;40;20040;-60
2021/06/02 02:09:49;;;;;;;4.65;3.53;;;20.30;46.20;;;;;;1480075;40;20069;-61
2021/06/02 02:11:33;;;;;;;4.15;3.58;;;20.30;45.60;;;;;;1479893;40;20037;-61
2021/06/02 02:12:57;;;;;;;4.32;3.50;;;20.20;46.20;;;;;;1479374;40;20037;-60
2021/06/02 02:14:55;;;;;;;4.88;3.63;;;20.20;46.00;;;;;;1481178;40;20497;-60
2021/06/02 02:16:48;;;;;;;4.40;3.90;;;20.20;46.50;;;;;;1481253;40;20032;-61
2021/06/02 02:18:31;;;;;;;4.75;3.80;;;20.20;46.10;;;;;;1479670;40;20037;-60
2021/06/02 02:20:18;;;;;;;5.20;3.75;;;20.20;45.80;;;;;;1480550;40;20045;-60
2021/06/02 02:21:40;;;;;;;6.13;3.95;;;20.10;46.70;;;;;;1479087;40;20044;-61
2021/06/02 02:23:20;;;;;;;5.47;4.47;;;20.10;45.80;;;;;;1480159;40;20047;-60
2021/06/02 02:24:54;;;;;;;4.30;3.85;;;20.10;46.50;;;;;;1480679;40;20354;-60
2021/06/02 02:26:33;;;;;;;5.13;4.55;;;20.10;46.50;;;;;;1478464;40;20041;-60
2021/06/02 02:28:32;;;;;;;6.13;3.70;;;20.00;46.70;;;;;;1479064;40;20040;-60
2021/06/02 02:30:16;;;;;;;4.25;3.45;;;20.00;46.50;;;;;;1480641;40;20424;-61
2021/06/02 02:32:09;;;;;;;4.18;3.38;;;20.00;46.90;;;;;;1481249;40;20025;-60
2021/06/02 02:33:43;;;;;;;4.03;3.63;;;20.00;46.90;;;;;;1479761;40;20479;-60
2021/06/02 02:35:07;;;;;;;5.28;4.20;;;20.00;46.70;;;;;;1482522;40;20040;-60
2021/06/02 02:36:40;;;;;;;4.63;3.97;;;20.00;46.40;;;;;;1481235;40;20077;-60
2021/06/02 02:38:29;;;;;;;4.20;3.80;;;19.90;47.00;;;;;;1479213;40;20032;-60
2021/06/02 02:40:02;;;;;;;6.32;3.70;;;19.90;47.10;;;;;;1482175;40;20064;-61
2021/06/02 02:41:48;;;;;;;4.63;4.13;;;19.90;46.90;;;;;;1482060;40;20048;-60
2021/06/02 02:43:37;;;;;;;6.53;4.32;;;19.90;46.70;;;;;;1480466;40;20033;-60
2021/06/02 02:44:58;;;;;;;3.40;3.10;;;19.90;47.00;;;;;;1480809;40;20037;-60
2021/06/02 02:46:43;;;;;;;3.97;3.58;;;19.90;46.50;;;;;;1481575;40;20044;-61
2021/06/02 02:48:31;;;;;;;4.80;4.07;;;19.90;47.00;;;;;;1481023;40;20028;-60
2021/06/02 02:49:55;;;;;;;4.47;3.83;;;19.90;47.10;;;;;;1481265;40;20076;-60
2021/06/02 02:51:40;;;;;;;4.32;3.92;;;19.90;47.10;;;;;;1481248;40;20048;-61
2021/06/02 02:53:14;;;;;;;4.35;3.95;;;19.80;47.10;;;;;;1481581;40;20043;-60
2021/06/02 02:55:09;;;;;;;5.07;4.00;;;19.80;47.10;;;;;;1480766;40;20031;-59
2021/06/02 02:57:02;;;;;;;4.70;4.20;;;19.80;47.40;;;;;;1481118;40;20043;-61
2021/06/02 02:58:28;;;;;;;4.20;3.78;;;19.80;46.80;;;;;;1481224;40;20037;-61
2021/06/02 03:00:12;;;;;;;5.50;3.72;;;19.80;46.60;;;;;;1481453;40;20029;-61
2021/06/02 03:01:42;;;;;;;4.07;3.72;;;19.80;46.90;;;;;;1481894;40;20031;-66
2021/06/02 03:03:14;;;;;;;4.15;3.65;;;19.80;47.00;;;;;;1476163;40;20085;-61
2021/06/02 03:04:44;;;;;;;4.32;3.90;;;19.80;47.20;;;;;;1479365;40;20017;-61
2021/06/02 03:06:22;;;;;;;4.85;3.95;;;19.70;47.00;;;;;;1483040;40;20036;-61
2021/06/02 03:07:52;;;;;;;5.40;3.83;;;19.70;47.00;;;;;;1478808;40;20040;-61
2021/06/02 03:09:34;;;;;;;4.78;4.28;;;19.70;46.90;;;;;;1479424;40;20049;-61
2021/06/02 03:11:06;;;;;;;4.45;4.05;;;19.60;47.10;;;;;;1482393;40;20187;-61
2021/06/02 03:13:03;;;;;;;4.75;3.97;;;19.60;47.00;;;;;;1477457;40;20056;-61
2021/06/02 03:14:53;;;;;;;4.25;3.80;;;19.60;47.20;;;;;;1480060;40;20044;-61
2021/06/02 03:16:23;;;;;;;4.90;3.63;;;19.50;47.20;;;;;;1481381;40;20357;-61
2021/06/02 03:18:08;;;;;;;6.10;4.05;;;19.50;47.10;;;;;;1479291;40;20127;-61
2021/06/02 03:19:41;;;;;;;4.55;3.50;;;19.50;47.60;;;;;;1481572;40;20029;-61
2021/06/02 03:21:16;;;;;;;6.15;3.80;;;19.50;47.40;;;;;;1482552;40;20062;-61
2021/06/02 03:23:01;;;;;;;4.80;3.72;;;19.50;47.60;;;;;;1481506;40;20032;-61
2021/06/02 03:24:22;;;;;;;4.40;4.00;;;19.40;47.90;;;;;;1480368;40;20041;-61
2021/06/02 03:25:52;;;;;;;4.22;3.83;;;19.50;47.50;;;;;;1481776;40;20194;-61
2021/06/02 03:27:33;;;;;;;;;;;19.40;47.70;;;;;;1482864;40;20033;-61
2021/06/02 03:29:13;;;;;;;4.00;3.60;;;19.40;47.50;;;;;;1480502;40;19936;-61
2021/06/02 03:30:45;;;;;;;5.40;4.05;;;19.40;47.40;;;;;;1482220;40;20063;-61
2021/06/02 03:32:18;;;;;;;5.45;3.97;;;19.40;47.40;;;;;;1482349;40;20029;-61
2021/06/02 03:34:09;;;;;;;4.43;4.03;;;19.40;47.40;;;;;;1477744;40;20316;-62
2021/06/02 03:35:36;;;;;;;4.60;3.67;;;19.40;47.80;;;;;;1480897;40;20336;-61
2021/06/02 03:37:34;;;;;;;7.18;3.65;;;19.40;47.30;;;;;;1483443;40;20021;-61
2021/06/02 03:39:17;;;;;;;5.43;3.75;;;19.40;48.00;;;;;;1480676;40;20032;-61
2021/06/02 03:41:07;;;;;;;4.07;3.63;;;19.40;47.50;;;;;;1481650;40;20702;-61
2021/06/02 03:42:34;;;;;;;3.83;3.53;;;19.30;48.10;;;;;;1478656;40;20279;-61
2021/06/02 03:44:22;;;;;;;5.05;3.92;;;19.30;47.80;;;;;;1479960;40;20573;-60
2021/06/02 03:46:11;;;;;;;3.80;3.50;;;19.30;47.90;;;;;;1474945;40;20366;-61
2021/06/02 03:47:53;;;;;;;4.30;3.95;;;19.30;48.10;;;;;;1481822;40;20033;-61
2021/06/02 03:49:20;;;;;;;7.30;4.25;;;19.30;47.80;;;;;;1480495;40;20068;-61
2021/06/02 03:51:02;;;;;;;5.72;3.80;;;19.30;47.70;;;;;;1482430;40;20021;-61
2021/06/02 03:52:36;;;;;;;4.30;3.90;;;19.30;48.00;;;;;;1481960;40;20029;-61
2021/06/02 03:54:58;;;;;;;5.22;4.05;;;19.30;48.10;;;;;;1480920;40;20033;-61
2021/06/02 03:56:28;;;;;;;4.03;3.63;;;19.30;48.50;;;;;;1464746;40;20049;-61
2021/06/02 03:57:59;;;;;;;;;;;19.20;48.10;;;;;;1470507;40;20809;-61
2021/06/02 03:59:43;;;;;;;3.58;3.25;;;19.30;48.00;;;;;;1481294;40;20166;-61
2021/06/02 04:01:18;;;;;;;5.53;4.03;;;19.30;48.00;;;;;;1482857;40;20039;-61
2021/06/02 04:03:19;;;;;;;4.13;3.63;;;19.30;47.80;;;;;;1477379;40;20278;-61
2021/06/02 04:05:01;;;;;;;4.78;4.07;;;19.30;47.80;;;;;;1476279;40;20037;-61
2021/06/02 04:06:29;;;;;;;4.47;3.70;;;19.20;47.60;;;;;;1480715;40;20375;-61
2021/06/02 04:08:15;;;;;;;4.07;3.67;;;19.20;47.50;;;;;;1481212;40;20041;-61
2021/06/02 04:09:59;;;;;;;4.43;3.90;;;19.20;48.20;;;;;;1481395;40;20029;-61
2021/06/02 04:11:43;;;;;;;3.67;3.35;;;19.30;48.10;;;;;;1480912;40;20045;-61
2021/06/02 04:13:31;;;;;;;5.30;3.80;;;19.20;48.00;;;;;;1481955;40;20029;-61
2021/06/02 04:14:57;;;;;;;4.97;3.78;;;19.20;48.20;;;;;;1479637;40;20069;-61
2021/06/02 04:16:22;;;;;;;6.38;4.40;;;19.20;48.10;;;;;;1480870;40;20261;-61
2021/06/02 04:17:49;;;;;;;5.25;4.05;;;19.30;48.20;;;;;;1479402;40;20032;-61
2021/06/02 04:19:15;;;;;;;5.63;4.07;;;19.30;48.60;;;;;;1479929;40;20436;-61
2021/06/02 04:20:42;;;;;;;5.22;4.03;;;19.20;48.70;;;;;;1479570;40;20033;-61
2021/06/02 04:22:06;;;;;;;5.10;3.70;;;19.20;48.60;;;;;;1481403;40;20029;-61
2021/06/02 04:23:28;;;;;;;4.53;3.78;;;19.20;48.60;;;;;;1479294;40;20057;-61
2021/06/02 04:24:50;;;;;;;4.20;3.80;;;19.30;48.60;;;;;;1481735;40;20552;-61
2021/06/02 04:26:12;;;;;;;5.10;3.80;;;19.30;48.70;;;;;;1481421;40;20044;-61
2021/06/02 04:27:37;;;;;;;5.05;4.28;;;19.30;48.80;;;;;;1481519;40;20032;-61
2021/06/02 04:29:01;;;;;;;4.40;4.00;;;19.30;48.90;;;;;;1484898;40;20363;-61
2021/06/02 04:30:25;;;;;;;5.40;4.15;;;19.30;49.00;;;;;;1480944;40;20136;-61
2021/06/02 04:31:48;;;;;;;5.07;3.97;;;19.30;49.20;;;;;;1483025;40;20114;-61
2021/06/02 04:33:11;;;;;;;4.35;3.95;;;19.30;49.00;;;;;;1481104;40;20025;-61
2021/06/02 04:34:33;;;;;;;4.15;3.75;;;19.30;48.80;;;;;;1480334;40;20119;-61
2021/06/02 04:35:57;;;;;;;6.05;4.13;;;19.30;48.70;;;;;;1482323;40;20048;-61
2021/06/02 04:37:20;;;;;;;4.50;4.10;;;19.30;48.80;;;;;;1481881;40;20616;-61
2021/06/02 04:38:41;;;;;;;4.47;4.03;;;19.30;48.80;;;;;;1481133;40;20362;-62
2021/06/02 04:40:07;;;;;;;5.72;3.95;;;19.30;48.70;;;;;;1479886;40;20113;-61
2021/06/02 04:41:29;;;;;;;5.63;3.78;;;19.30;48.80;;;;;;1481234;40;20045;-61
2021/06/02 04:42:51;;;;;;;3.92;3.58;;;19.30;48.70;;;;;;1482034;40;20069;-61
2021/06/02 04:44:14;;;;;;;6.05;3.67;;;19.30;48.60;;;;;;1481941;40;20029;-61
2021/06/02 04:45:44;;;;;;;5.07;3.63;;;19.30;48.50;;;;;;1478020;40;20380;-61
2021/06/02 04:47:07;;;;;;;4.43;3.83;;;19.30;48.70;;;;;;1481242;40;20040;-61
2021/06/02 04:48:28;;;;;;;4.68;3.78;;;19.30;48.60;;;;;;1479817;40;20025;-61
2021/06/02 04:50:14;;;;;;;4.32;3.70;;;19.30;48.40;;;;;;1478258;40;20067;-61
2021/06/02 04:52:15;;;;;;;3.75;3.45;;;19.30;48.70;;;;;;1479589;40;20331;-61
2021/06/02 04:54:15;;;;;;;3.60;3.30;;;19.30;48.50;;;;;;1480617;40;20025;-61
2021/06/02 04:55:48;;;;;;;5.05;3.30;;;19.40;48.20;;;;;;1481246;40;20032;-61
2021/06/02 04:57:45;;;;;;;3.53;3.22;;;19.40;48.00;;;;;;1472366;40;20256;-61
2021/06/02 04:59:28;;;;;;;4.57;3.50;;;19.30;48.10;;;;;;1481287;40;20236;-61
2021/06/02 05:01:01;;;;;;;3.58;3.25;;;19.40;48.20;;;;;;1481649;40;20047;-60
2021/06/02 05:02:59;;;;;;;4.13;3.35;;;19.40;48.20;;;;;;1481247;40;20282;-60
2021/06/02 05:04:48;;;;;;;4.50;3.17;;;19.40;48.50;;;;;;1481109;40;20059;-60
2021/06/02 05:06:30;;;;;;;3.50;3.20;;;19.40;48.10;;;;;;1479675;40;20045;-60
2021/06/02 05:08:22;;;;;;;4.25;3.20;;;19.40;48.10;;;;;;1479827;40;20029;-60
2021/06/02 05:10:07;;;;;;;4.43;3.45;;;19.40;48.60;;;;;;1478899;40;20017;-60
2021/06/02 05:12:02;;;;;;;3.75;3.40;;;19.40;48.40;;;;;;1478843;40;20283;-60
2021/06/02 05:13:55;;;;;;;4.00;2.92;;;19.40;48.10;;;;;;1478253;40;20032;-60
2021/06/02 05:15:59;;;;;;;4.70;3.90;;;19.50;48.20;;;;;;1478779;40;20045;-60
2021/06/02 05:18:02;;;;;;;4.03;3.63;;;19.50;48.20;;;;;;1479349;40;20044;-60
2021/06/02 05:23:08;;;;;;;4.78;4.28;;;19.50;47.80;;;;;;1478719;40;20615;-60
2021/06/02 05:25:01;;;;;;;5.43;4.88;;;19.50;48.10;;;;;;1480973;40;20045;-60
2021/06/02 05:26:40;;;;;;;4.82;4.32;;;19.50;48.50;;;;;;1480040;40;20041;-60
2021/06/02 05:28:23;;;;;;;5.18;4.78;;;19.50;48.30;;;;;;1479356;40;20118;-60
2021/06/02 05:29:56;;;;;;;4.70;4.25;;;19.50;48.30;;;;;;1480464;40;20129;-60
2021/06/02 05:31:41;;;;;;;4.30;3.90;;;19.50;48.00;;;;;;1480860;40;20039;-61
2021/06/02 05:33:08;;;;;;;6.70;4.40;;;19.60;48.10;;;;;;1479650;40;20247;-60
2021/06/02 05:34:59;;;;;;;4.57;4.15;;;19.60;48.30;;;;;;1478574;40;20055;-60
2021/06/02 05:36:58;;;;;;;4.70;3.95;;;19.60;48.40;;;;;;1478920;40;20040;-60
2021/06/02 05:38:27;;;;;;;4.55;4.15;;;19.60;48.30;;;;;;1481676;40;20179;-60
2021/06/02 05:40:01;;;;;;;4.43;4.03;;;19.60;48.10;;;;;;1480893;40;20091;-60
2021/06/02 05:42:12;;;;;;;5.80;5.15;;;19.70;48.30;;;;;;1479976;40;20031;-60
2021/06/02 05:43:56;;;;;;;5.70;4.90;;;19.60;48.20;;;;;;1460034;40;20039;-60
2021/06/02 05:45:47;;;;;;;7.13;5.60;;;19.70;48.20;;;;;;1479389;40;20040;-60
2021/06/02 05:47:32;;;;;;;7.60;6.72;;;19.70;48.20;;;;;;1477638;40;20025;-60
2021/06/02 05:49:14;;;;;;;9.88;7.07;;;19.70;48.20;;;;;;1480647;40;20035;-60
2021/06/02 05:51:32;;;;;;;8.45;7.15;;;19.80;48.20;;;;;;1481046;40;20239;-61
2021/06/02 05:53:35;;;;;;;9.77;7.75;;;19.80;48.30;;;;;;1462911;40;20042;-60
2021/06/02 05:55:15;;;;;;;8.60;6.65;;;19.80;48.20;;;;;;1463802;40;20070;-60
2021/06/02 05:56:54;;;;;;;;;;;19.90;48.20;;;;;;1464905;40;20034;-60
2021/06/02 05:58:52;;;;;;;8.85;7.47;;;19.90;47.90;;;;;;1471743;40;19940;-60
2021/06/02 06:00:34;;;;;;;7.95;7.03;;;20.00;48.30;;;;;;1480110;40;20420;-60
2021/06/02 06:02:08;;;;;;;8.55;6.78;;;20.00;48.10;;;;;;1479592;40;20041;-60
2021/06/02 06:04:04;;;;;;;8.45;6.85;;;20.00;48.40;;;;;;1480619;40;20025;-60
2021/06/02 06:06:01;;;;;;;7.68;6.07;;;20.00;48.60;;;;;;1479396;40;20479;-60
2021/06/02 06:07:59;;;;;;;7.28;5.45;;;20.10;48.50;;;;;;1480630;40;20036;-60
2021/06/02 06:09:51;;;;;;;5.32;4.45;;;20.10;48.60;;;;;;1480990;40;20283;-60
2021/06/02 06:11:30;;;;;;;7.07;4.85;;;20.20;48.40;;;;;;1480024;40;20039;-60
2021/06/02 06:13:24;;;;;;;7.97;4.47;;;20.20;48.10;;;;;;1481825;40;20391;-60
2021/06/02 06:15:13;;;;;;;6.10;4.30;;;20.20;47.90;;;;;;1481477;40;20041;-60
2021/06/02 06:16:55;;;;;;;7.00;4.07;;;20.20;47.80;;;;;;1480481;40;20025;-60
2021/06/02 06:18:50;;;;;;;7.20;4.40;;;20.30;47.80;;;;;;1481362;40;20025;-60
2021/06/02 06:20:37;;;;;;;4.53;3.65;;;20.30;47.80;;;;;;1482001;40;20135;-60
2021/06/02 06:22:10;;;;;;;5.82;4.40;;;20.30;48.10;;;;;;1480536;40;20122;-60
2021/06/02 06:23:56;;;;;;;5.90;4.45;;;20.40;47.70;;;;;;1479764;40;20025;-60
2021/06/02 06:25:24;;;;;;;5.68;3.90;;;20.40;47.70;;;;;;1481763;40;20124;-60
2021/06/02 06:26:50;;;;;;;6.57;3.90;;;20.40;47.70;;;;;;1475476;40;20110;-60
2021/06/02 06:28:30;;;;;;;8.75;4.30;;;20.50;47.60;;;;;;1477452;40;20037;-60
2021/06/02 06:29:57;;;;;;;;;;;20.50;47.70;;;;;;1482120;40;20041;-60
2021/06/02 06:31:23;;;;;;;6.00;3.70;;;20.60;47.40;;;;;;1478941;40;19991;-60
2021/06/02 06:32:47;;;;;;;7.78;4.43;;;20.60;47.40;;;;;;1476441;40;20029;-60
2021/06/02 06:34:16;;;;;;;5.28;4.13;;;20.70;47.40;;;;;;1477885;40;20076;-61
2021/06/02 06:35:39;;;;;;;6.15;4.60;;;20.70;47.30;;;;;;1481686;40;20243;-60
2021/06/02 06:37:01;;;;;;;6.53;4.30;;;20.70;47.40;;;;;;1480701;40;20052;-60
2021/06/02 06:38:51;;;;;;;8.80;4.90;;;20.70;47.30;;;;;;1481374;40;20110;-61
2021/06/02 06:40:13;;;;;;;;;;;20.80;47.30;;;;;;1480838;40;20033;-61
2021/06/02 06:41:37;;;;;;;6.38;4.20;;;20.90;47.00;;;;;;1482203;40;19928;-60
2021/06/02 06:43:01;;;;;;;5.80;4.32;;;20.90;46.90;;;;;;1479868;40;20362;-60
2021/06/02 06:44:24;;;;;;;7.75;4.35;;;20.90;46.80;;;;;;1481458;40;20400;-61
2021/06/02 06:45:48;;;;;;;5.45;4.07;;;21.00;46.70;;;;;;1477547;40;20048;-60
2021/06/02 06:47:12;;;;;;;8.45;4.32;;;21.00;46.70;;;;;;1480115;40;20025;-60
2021/06/02 06:48:34;;;;;;;9.20;4.45;;;21.00;46.60;;;;;;1480853;40;20040;-60
2021/06/02 06:49:57;;;;;;;6.07;4.07;;;21.00;46.70;;;;;;1482376;40;20542;-60
2021/06/02 06:51:23;;;;;;;5.15;3.67;;;21.10;46.60;;;;;;1480206;40;20676;-60
2021/06/02 06:52:49;;;;;;;5.80;4.13;;;21.10;46.50;;;;;;1482442;40;20048;-61
2021/06/02 06:54:13;;;;;;;6.80;3.88;;;21.20;46.60;;;;;;1476386;40;20041;-60
2021/06/02 06:55:35;;;;;;;4.10;3.42;;;21.20;46.60;;;;;;1481273;40;20029;-60
2021/06/02 06:56:56;;;;;;;4.70;3.72;;;21.30;46.60;;;;;;1480293;40;20051;-61
2021/06/02 06:58:18;;;;;;;8.00;4.07;;;21.30;46.70;;;;;;1479929;40;20025;-60
2021/06/02 06:59:40;;;;;;;8.00;3.95;;;21.30;46.60;;;;;;1481023;40;20080;-60
2021/06/02 07:01:01;;;;;;;5.53;3.55;;;21.40;46.70;;;;;;1476772;40;20043;-60
2021/06/02 07:02:23;;;;;;;8.18;4.30;;;21.40;46.70;;;;;;1480958;40;20021;-60
2021/06/02 07:03:44;;;;;;;6.22;3.97;;;21.40;46.80;;;;;;1472663;40;20057;-60
2021/06/02 07:05:06;;;;;;;4.78;3.58;;;21.50;46.90;;;;;;1477474;40;20033;-60
2021/06/02 07:06:29;;;;;;;8.75;3.22;;;21.50;46.80;;;;;;1477094;40;20029;-61
2021/06/02 07:07:52;;;;;;;4.15;3.70;;;21.60;46.90;;;;;;1481476;40;20033;-60
2021/06/02 07:09:13;;;;;;;6.70;3.58;;;21.60;47.00;;;;;;1481192;40;20029;-60
2021/06/02 07:10:34;;;;;;;5.93;3.70;;;21.70;46.80;;;;;;1481435;40;20029;-61
2021/06/02 07:11:57;;;;;;;8.73;3.40;;;21.70;46.80;;;;;;1478269;40;20416;-60
2021/06/02 07:13:23;;;;;;;6.40;3.15;;;21.80;46.70;;;;;;1481169;40;20407;-61
2021/06/02 07:14:44;;;;;;;4.22;3.20;;;21.80;46.50;;;;;;1482028;40;20052;-60
2021/06/02 07:16:07;;;;;;;5.00;3.17;;;21.80;46.50;;;;;;1480463;40;20033;-60
2021/06/02 07:17:28;;;;;;;3.67;2.83;;;21.90;46.60;;;;;;1481325;40;20036;-61
2021/06/02 07:18:51;;;;;;;6.18;2.72;;;21.90;46.40;;;;;;1481932;40;20037;-60
2021/06/02 07:20:16;;;;;;;4.28;3.03;;;22.00;46.30;;;;;;1479457;40;20041;-61
2021/06/02 07:21:42;;;;;;;3.75;2.85;;;22.00;46.20;;;;;;1480303;40;20029;-61
2021/06/02 07:23:03;;;;;;;5.30;2.80;;;22.10;45.80;;;;;;1480994;40;20052;-61
2021/06/02 07:24:24;;;;;;;3.45;2.60;;;22.10;45.60;;;;;;1480973;40;20411;-61
2021/06/02 07:25:45;;;;;;;3.20;2.90;;;22.20;45.60;;;;;;1482583;40;20172;-60
2021/06/02 07:27:06;;;;;;;3.55;2.75;;;22.20;45.40;;;;;;1479738;40;20028;-60
2021/06/02 07:28:36;;;;;;;6.15;2.47;;;22.20;45.10;;;;;;1481519;40;20033;-60
2021/06/02 07:29:57;;;;;;;;;;;22.30;44.70;;;;;;1480999;40;20262;-61
2021/06/02 07:31:18;;;;;;;8.27;2.85;;;22.30;44.70;;;;;;1478811;40;20022;-60
2021/06/02 07:32:40;;;;;;;5.22;2.80;;;22.40;44.90;;;;;;1477985;40;20081;-60
2021/06/02 07:34:01;;;;;;;4.32;3.33;;;22.50;44.90;;;;;;1482586;40;20037;-61
2021/06/02 07:35:22;;;;;;;5.35;2.83;;;22.50;44.90;;;;;;1480045;40;20025;-60
2021/06/02 07:36:43;;;;;;;6.25;3.38;;;22.60;44.90;;;;;;1481478;40;20032;-60
2021/06/02 07:38:04;;;;;;;7.03;2.88;;;22.60;44.80;;;;;;1482047;40;20038;-61
2021/06/02 07:39:25;;;;;;;4.88;3.33;;;22.60;44.80;;;;;;1481385;40;20029;-60
2021/06/02 07:40:46;;;;;;;3.58;3.08;;;22.60;44.80;;;;;;1481467;40;20262;-61
2021/06/02 07:42:07;;;;;;;4.30;3.03;;;22.70;44.80;;;;;;1479253;40;20021;-61
2021/06/02 07:43:28;;;;;;;4.82;3.28;;;22.80;44.90;;;;;;1480982;40;20032;-61
2021/06/02 07:44:49;;;;;;;8.43;3.30;;;22.80;45.00;;;;;;1479232;40;20037;-61
2021/06/02 07:46:10;;;;;;;8.45;3.28;;;22.80;45.20;;;;;;1481188;40;20433;-60
2021/06/02 07:47:31;;;;;;;6.20;3.10;;;22.80;45.10;;;;;;1481554;40;20569;-61
2021/06/02 07:48:52;;;;;;;3.83;2.75;;;22.90;44.90;;;;;;1480303;40;20138;-61
2021/06/02 07:50:14;;;;;;;4.72;3.20;;;23.00;44.80;;;;;;1483094;40;20024;-60
2021/06/02 07:51:36;;;;;;;4.93;3.30;;;23.00;44.70;;;;;;1480768;40;20035;-60
2021/06/02 07:52:57;;;;;;;4.78;3.05;;;23.00;44.90;;;;;;1480148;40;20048;-60
2021/06/02 07:54:19;;;;;;;3.40;3.10;;;23.10;45.20;;;;;;1479518;40;20079;-61
2021/06/02 07:55:40;;;;;;;4.80;3.33;;;23.10;45.20;;;;;;1479443;40;20381;-61
2021/06/02 07:57:01;;;;;;;6.07;3.65;;;23.10;45.10;;;;;;1480846;40;20114;-61
2021/06/02 07:58:22;;;;;;;3.45;2.67;;;23.20;45.40;;;;;;1481428;40;20179;-61
2021/06/02 07:59:43;;;;;;;6.03;3.25;;;23.30;45.20;;;;;;1481636;40;20074;-61
2021/06/02 08:01:04;;;;;;;5.65;3.15;;;23.30;45.00;;;;;;1479202;40;20037;-60
2021/06/02 08:02:25;;;;;;;2.75;2.55;;;23.30;44.50;;;;;;1479845;40;20025;-61
2021/06/02 08:03:46;;;;;;;3.78;2.92;;;23.40;44.30;;;;;;1478995;40;20044;-61
2021/06/02 08:05:07;;;;;;;6.22;2.65;;;23.40;44.10;;;;;;1481668;40;20028;-61
2021/06/02 08:06:28;;;;;;;4.15;2.38;;;23.50;44.00;;;;;;1481145;40;20040;-61
2021/06/02 08:07:49;;;;;;;2.75;2.47;;;23.50;43.90;;;;;;1479989;40;20037;-61